sensor_id;sensor_type;location;lat;lon;timestamp;temperature;humidity
1347;DHT22;667;48.796;9.480;2024-01-15T00:00:41;1.80;64.90
1347;DHT22;667;48.796;9.480;2024-01-15T00:03:06;1.80;64.80
1347;DHT22;667;48.796;9.480;2024-01-15T00:05:32;1.70;64.50
1347;DHT22;667;48.796;9.480;2024-01-15T00:07:58;1.80;64.60
1347;DHT22;667;48.796;9.480;2024-01-15T00:10:23;1.70;64.80
1347;DHT22;667;48.796;9.480;2024-01-15T00:12:49;1.70;64.80
1347;DHT22;667;48.796;9.480;2024-01-15T00:15:14;1.70;64.80
1347;DHT22;667;48.796;9.480;2024-01-15T00:17:40;1.70;64.80
1347;DHT22;667;48.796;9.480;2024-01-15T00:20:06;1.70;64.80
1347;DHT22;667;48.796;9.480;2024-01-15T00:22:32;1.70;64.90
1347;DHT22;667;48.796;9.480;2024-01-15T00:24:58;1.70;64.80
1347;DHT22;667;48.796;9.480;2024-01-15T00:27:23;1.80;65.00
1347;DHT22;667;48.796;9.480;2024-01-15T00:29:49;1.80;64.90
1347;DHT22;667;48.796;9.480;2024-01-15T00:32:17;1.70;64.60
1347;DHT22;667;48.796;9.480;2024-01-15T00:34:42;1.80;64.60
1347;DHT22;667;48.796;9.480;2024-01-15T00:37:08;1.70;64.40
1347;DHT22;667;48.796;9.480;2024-01-15T00:39:33;1.70;64.30
1347;DHT22;667;48.796;9.480;2024-01-15T00:41:59;1.70;64.50
1347;DHT22;667;48.796;9.480;2024-01-15T00:44:24;1.70;64.50
1347;DHT22;667;48.796;9.480;2024-01-15T00:46:50;1.70;64.60
1347;DHT22;667;48.796;9.480;2024-01-15T00:49:16;1.70;64.60
1347;DHT22;667;48.796;9.480;2024-01-15T00:51:42;1.70;64.60
1347;DHT22;667;48.796;9.480;2024-01-15T00:54:07;1.80;64.90
1347;DHT22;667;48.796;9.480;2024-01-15T00:56:33;1.80;65.00
1347;DHT22;667;48.796;9.480;2024-01-15T00:58:59;1.80;65.00
1347;DHT22;667;48.796;9.480;2024-01-15T01:01:24;1.80;65.00
1347;DHT22;667;48.796;9.480;2024-01-15T01:03:50;1.80;65.10
1347;DHT22;667;48.796;9.480;2024-01-15T01:06:15;1.80;65.10
1347;DHT22;667;48.796;9.480;2024-01-15T01:08:41;1.80;65.00
1347;DHT22;667;48.796;9.480;2024-01-15T01:11:07;1.80;65.00
1347;DHT22;667;48.796;9.480;2024-01-15T01:13:32;1.80;65.00
1347;DHT22;667;48.796;9.480;2024-01-15T01:15:58;1.80;65.00
1347;DHT22;667;48.796;9.480;2024-01-15T01:18:24;1.80;65.00
1347;DHT22;667;48.796;9.480;2024-01-15T01:20:49;1.80;64.90
1347;DHT22;667;48.796;9.480;2024-01-15T01:23:15;1.80;64.90
1347;DHT22;667;48.796;9.480;2024-01-15T01:25:40;1.80;64.90
1347;DHT22;667;48.796;9.480;2024-01-15T01:28:06;1.90;65.10
1347;DHT22;667;48.796;9.480;2024-01-15T01:30:31;1.80;65.00
1347;DHT22;667;48.796;9.480;2024-01-15T01:32:57;1.90;65.00
1347;DHT22;667;48.796;9.480;2024-01-15T01:35:23;1.90;65.00
1347;DHT22;667;48.796;9.480;2024-01-15T01:37:48;1.90;65.10
1347;DHT22;667;48.796;9.480;2024-01-15T01:40:14;1.90;65.10
1347;DHT22;667;48.796;9.480;2024-01-15T01:42:39;1.90;65.30
1347;DHT22;667;48.796;9.480;2024-01-15T01:45:05;1.90;65.40
1347;DHT22;667;48.796;9.480;2024-01-15T01:47:31;1.90;65.50
1347;DHT22;667;48.796;9.480;2024-01-15T01:49:57;1.90;65.50
1347;DHT22;667;48.796;9.480;2024-01-15T01:52:23;1.90;65.50
1347;DHT22;667;48.796;9.480;2024-01-15T01:54:49;1.90;65.40
1347;DHT22;667;48.796;9.480;2024-01-15T01:57:16;1.90;65.50
1347;DHT22;667;48.796;9.480;2024-01-15T01:59:43;2.00;65.70
1347;DHT22;667;48.796;9.480;2024-01-15T02:02:09;2.00;65.70
1347;DHT22;667;48.796;9.480;2024-01-15T02:04:36;2.00;65.70
1347;DHT22;667;48.796;9.480;2024-01-15T02:07:02;2.00;65.80
1347;DHT22;667;48.796;9.480;2024-01-15T02:09:28;2.00;65.80
1347;DHT22;667;48.796;9.480;2024-01-15T02:11:53;2.00;65.70
1347;DHT22;667;48.796;9.480;2024-01-15T02:14:19;2.00;65.70
1347;DHT22;667;48.796;9.480;2024-01-15T02:16:45;2.00;65.70
1347;DHT22;667;48.796;9.480;2024-01-15T02:19:17;2.00;65.70
1347;DHT22;667;48.796;9.480;2024-01-15T02:21:43;2.00;65.70
1347;DHT22;667;48.796;9.480;2024-01-15T02:24:08;2.00;65.80
1347;DHT22;667;48.796;9.480;2024-01-15T02:26:34;2.00;65.90
1347;DHT22;667;48.796;9.480;2024-01-15T02:29:01;2.00;66.00
1347;DHT22;667;48.796;9.480;2024-01-15T02:31:27;2.00;66.00
1347;DHT22;667;48.796;9.480;2024-01-15T02:33:53;2.00;66.00
1347;DHT22;667;48.796;9.480;2024-01-15T02:36:18;2.10;66.20
1347;DHT22;667;48.796;9.480;2024-01-15T02:38:44;2.10;66.10
1347;DHT22;667;48.796;9.480;2024-01-15T02:41:09;2.10;66.00
1347;DHT22;667;48.796;9.480;2024-01-15T02:43:35;2.10;66.00
1347;DHT22;667;48.796;9.480;2024-01-15T02:46:00;2.10;66.00
1347;DHT22;667;48.796;9.480;2024-01-15T02:48:26;2.10;66.00
1347;DHT22;667;48.796;9.480;2024-01-15T02:50:51;2.10;66.00
1347;DHT22;667;48.796;9.480;2024-01-15T02:53:17;2.10;66.00
1347;DHT22;667;48.796;9.480;2024-01-15T02:55:42;2.10;65.90
1347;DHT22;667;48.796;9.480;2024-01-15T02:58:08;2.10;65.90
1347;DHT22;667;48.796;9.480;2024-01-15T03:00:34;2.20;65.90
1347;DHT22;667;48.796;9.480;2024-01-15T03:02:59;2.20;65.80
1347;DHT22;667;48.796;9.480;2024-01-15T03:05:25;2.20;65.70
1347;DHT22;667;48.796;9.480;2024-01-15T03:07:50;2.20;65.60
1347;DHT22;667;48.796;9.480;2024-01-15T03:10:16;2.20;65.70
1347;DHT22;667;48.796;9.480;2024-01-15T03:12:42;2.30;65.70
1347;DHT22;667;48.796;9.480;2024-01-15T03:15:07;2.20;65.60
1347;DHT22;667;48.796;9.480;2024-01-15T03:17:33;2.30;65.70
1347;DHT22;667;48.796;9.480;2024-01-15T03:19:58;2.30;65.60
1347;DHT22;667;48.796;9.480;2024-01-15T03:22:24;2.30;65.50
1347;DHT22;667;48.796;9.480;2024-01-15T03:24:50;2.30;65.50
1347;DHT22;667;48.796;9.480;2024-01-15T03:27:15;2.30;65.40
1347;DHT22;667;48.796;9.480;2024-01-15T03:29:41;2.30;65.40
1347;DHT22;667;48.796;9.480;2024-01-15T03:32:06;2.30;65.40
1347;DHT22;667;48.796;9.480;2024-01-15T03:34:32;2.30;65.40
1347;DHT22;667;48.796;9.480;2024-01-15T03:36:58;2.30;65.40
1347;DHT22;667;48.796;9.480;2024-01-15T03:39:24;2.30;65.50
1347;DHT22;667;48.796;9.480;2024-01-15T03:41:50;2.30;65.40
1347;DHT22;667;48.796;9.480;2024-01-15T03:44:15;2.40;65.40
1347;DHT22;667;48.796;9.480;2024-01-15T03:46:41;2.30;65.30
1347;DHT22;667;48.796;9.480;2024-01-15T03:49:06;2.40;65.40
1347;DHT22;667;48.796;9.480;2024-01-15T03:51:32;2.30;65.20
1347;DHT22;667;48.796;9.480;2024-01-15T03:53:58;2.30;65.20
1347;DHT22;667;48.796;9.480;2024-01-15T03:56:23;2.40;65.30
1347;DHT22;667;48.796;9.480;2024-01-15T03:58:49;2.40;65.20
1347;DHT22;667;48.796;9.480;2024-01-15T04:01:14;2.40;65.20
1347;DHT22;667;48.796;9.480;2024-01-15T04:03:40;2.40;65.10
1347;DHT22;667;48.796;9.480;2024-01-15T04:06:05;2.40;65.10
1347;DHT22;667;48.796;9.480;2024-01-15T04:08:31;2.40;65.10
1347;DHT22;667;48.796;9.480;2024-01-15T04:10:56;2.40;65.00
1347;DHT22;667;48.796;9.480;2024-01-15T04:13:22;2.40;65.10
1347;DHT22;667;48.796;9.480;2024-01-15T04:15:48;2.40;65.00
1347;DHT22;667;48.796;9.480;2024-01-15T04:18:15;2.40;65.00
1347;DHT22;667;48.796;9.480;2024-01-15T04:20:40;2.40;64.90
1347;DHT22;667;48.796;9.480;2024-01-15T04:23:06;2.40;64.90
1347;DHT22;667;48.796;9.480;2024-01-15T04:25:32;2.40;64.90
1347;DHT22;667;48.796;9.480;2024-01-15T04:27:57;2.50;65.10
1347;DHT22;667;48.796;9.480;2024-01-15T04:30:23;2.40;65.20
1347;DHT22;667;48.796;9.480;2024-01-15T04:32:48;2.40;64.90
1347;DHT22;667;48.796;9.480;2024-01-15T04:35:14;2.50;65.10
1347;DHT22;667;48.796;9.480;2024-01-15T04:37:39;2.50;65.10
1347;DHT22;667;48.796;9.480;2024-01-15T04:40:07;2.50;65.10
1347;DHT22;667;48.796;9.480;2024-01-15T04:42:32;2.50;65.10
1347;DHT22;667;48.796;9.480;2024-01-15T04:44:58;2.50;65.20
1347;DHT22;667;48.796;9.480;2024-01-15T04:47:24;2.50;65.20
1347;DHT22;667;48.796;9.480;2024-01-15T04:49:49;2.50;65.30
1347;DHT22;667;48.796;9.480;2024-01-15T04:52:15;2.60;65.40
1347;DHT22;667;48.796;9.480;2024-01-15T04:54:40;2.60;65.40
1347;DHT22;667;48.796;9.480;2024-01-15T04:57:06;2.60;65.40
1347;DHT22;667;48.796;9.480;2024-01-15T04:59:32;2.60;65.40
1347;DHT22;667;48.796;9.480;2024-01-15T05:01:57;2.60;65.50
1347;DHT22;667;48.796;9.480;2024-01-15T05:04:23;2.60;65.50
1347;DHT22;667;48.796;9.480;2024-01-15T05:06:50;2.60;65.60
1347;DHT22;667;48.796;9.480;2024-01-15T05:09:16;2.60;65.60
1347;DHT22;667;48.796;9.480;2024-01-15T05:11:41;2.60;65.60
1347;DHT22;667;48.796;9.480;2024-01-15T05:14:07;2.60;65.60
1347;DHT22;667;48.796;9.480;2024-01-15T05:16:32;2.60;65.70
1347;DHT22;667;48.796;9.480;2024-01-15T05:18:58;2.60;65.70
1347;DHT22;667;48.796;9.480;2024-01-15T05:21:23;2.60;65.80
1347;DHT22;667;48.796;9.480;2024-01-15T05:23:49;2.60;65.90
1347;DHT22;667;48.796;9.480;2024-01-15T05:26:14;2.60;66.60
1347;DHT22;667;48.796;9.480;2024-01-15T05:28:43;2.60;65.90
1347;DHT22;667;48.796;9.480;2024-01-15T05:31:09;2.60;65.90
1347;DHT22;667;48.796;9.480;2024-01-15T05:33:36;2.60;66.00
1347;DHT22;667;48.796;9.480;2024-01-15T05:36:01;2.70;66.00
1347;DHT22;667;48.796;9.480;2024-01-15T05:38:27;2.60;65.90
1347;DHT22;667;48.796;9.480;2024-01-15T05:40:53;2.60;66.00
1347;DHT22;667;48.796;9.480;2024-01-15T05:43:19;2.60;66.10
1347;DHT22;667;48.796;9.480;2024-01-15T05:45:44;2.60;66.20
1347;DHT22;667;48.796;9.480;2024-01-15T05:48:11;2.60;66.30
1347;DHT22;667;48.796;9.480;2024-01-15T05:50:36;2.60;66.50
1347;DHT22;667;48.796;9.480;2024-01-15T05:53:02;2.60;66.70
1347;DHT22;667;48.796;9.480;2024-01-15T05:55:28;2.60;66.80
1347;DHT22;667;48.796;9.480;2024-01-15T05:57:58;2.60;67.00
1347;DHT22;667;48.796;9.480;2024-01-15T06:00:24;2.60;67.00
1347;DHT22;667;48.796;9.480;2024-01-15T06:02:49;2.60;66.90
1347;DHT22;667;48.796;9.480;2024-01-15T06:05:15;2.60;67.00
1347;DHT22;667;48.796;9.480;2024-01-15T06:07:41;2.60;67.00
1347;DHT22;667;48.796;9.480;2024-01-15T06:10:07;2.60;67.00
1347;DHT22;667;48.796;9.480;2024-01-15T06:12:33;2.60;67.10
1347;DHT22;667;48.796;9.480;2024-01-15T06:14:59;2.60;67.10
1347;DHT22;667;48.796;9.480;2024-01-15T06:17:24;2.70;67.10
1347;DHT22;667;48.796;9.480;2024-01-15T06:19:50;2.70;67.00
1347;DHT22;667;48.796;9.480;2024-01-15T06:22:15;2.70;67.00
1347;DHT22;667;48.796;9.480;2024-01-15T06:24:41;2.80;67.00
1347;DHT22;667;48.796;9.480;2024-01-15T06:27:07;2.80;67.00
1347;DHT22;667;48.796;9.480;2024-01-15T06:29:32;2.80;66.90
1347;DHT22;667;48.796;9.480;2024-01-15T06:31:58;2.80;66.90
1347;DHT22;667;48.796;9.480;2024-01-15T06:34:23;2.80;66.90
1347;DHT22;667;48.796;9.480;2024-01-15T06:36:49;2.80;66.90
1347;DHT22;667;48.796;9.480;2024-01-15T06:39:15;2.90;66.90
1347;DHT22;667;48.796;9.480;2024-01-15T06:41:40;2.90;66.80
1347;DHT22;667;48.796;9.480;2024-01-15T06:44:12;2.90;66.70
1347;DHT22;667;48.796;9.480;2024-01-15T06:46:45;2.90;66.60
1347;DHT22;667;48.796;9.480;2024-01-15T06:49:11;2.90;66.60
1347;DHT22;667;48.796;9.480;2024-01-15T06:51:37;3.00;66.70
1347;DHT22;667;48.796;9.480;2024-01-15T06:54:03;3.00;66.70
1347;DHT22;667;48.796;9.480;2024-01-15T06:56:28;3.00;66.60
1347;DHT22;667;48.796;9.480;2024-01-15T06:58:54;3.00;66.60
1347;DHT22;667;48.796;9.480;2024-01-15T07:01:20;3.00;66.60
1347;DHT22;667;48.796;9.480;2024-01-15T07:03:45;3.00;66.50
1347;DHT22;667;48.796;9.480;2024-01-15T07:06:11;3.00;66.50
1347;DHT22;667;48.796;9.480;2024-01-15T07:08:38;3.00;66.50
1347;DHT22;667;48.796;9.480;2024-01-15T07:11:04;3.00;66.50
1347;DHT22;667;48.796;9.480;2024-01-15T07:13:30;3.00;66.50
1347;DHT22;667;48.796;9.480;2024-01-15T07:15:56;3.00;66.50
1347;DHT22;667;48.796;9.480;2024-01-15T07:18:21;3.00;67.20
1347;DHT22;667;48.796;9.480;2024-01-15T07:20:47;3.00;66.50
1347;DHT22;667;48.796;9.480;2024-01-15T07:23:12;3.00;66.50
1347;DHT22;667;48.796;9.480;2024-01-15T07:25:38;3.00;66.50
1347;DHT22;667;48.796;9.480;2024-01-15T07:28:04;3.00;66.50
1347;DHT22;667;48.796;9.480;2024-01-15T07:30:29;3.00;66.40
1347;DHT22;667;48.796;9.480;2024-01-15T07:32:55;3.10;66.40
1347;DHT22;667;48.796;9.480;2024-01-15T07:35:21;3.10;66.30
1347;DHT22;667;48.796;9.480;2024-01-15T07:37:46;3.10;66.30
1347;DHT22;667;48.796;9.480;2024-01-15T07:40:12;3.10;66.30
1347;DHT22;667;48.796;9.480;2024-01-15T07:42:38;3.10;66.20
1347;DHT22;667;48.796;9.480;2024-01-15T07:45:04;3.10;66.10
1347;DHT22;667;48.796;9.480;2024-01-15T07:47:30;3.10;66.10
1347;DHT22;667;48.796;9.480;2024-01-15T07:49:55;3.20;66.10
1347;DHT22;667;48.796;9.480;2024-01-15T07:52:21;3.20;66.00
1347;DHT22;667;48.796;9.480;2024-01-15T07:54:47;3.20;65.90
1347;DHT22;667;48.796;9.480;2024-01-15T07:57:13;3.30;65.90
1347;DHT22;667;48.796;9.480;2024-01-15T07:59:38;3.30;65.70
1347;DHT22;667;48.796;9.480;2024-01-15T08:02:05;3.30;65.70
1347;DHT22;667;48.796;9.480;2024-01-15T08:04:31;3.30;65.70
1347;DHT22;667;48.796;9.480;2024-01-15T08:06:56;3.30;65.60
1347;DHT22;667;48.796;9.480;2024-01-15T08:09:22;3.30;65.60
1347;DHT22;667;48.796;9.480;2024-01-15T08:11:48;3.30;65.50
1347;DHT22;667;48.796;9.480;2024-01-15T08:14:15;3.30;65.40
1347;DHT22;667;48.796;9.480;2024-01-15T08:16:40;3.30;65.30
1347;DHT22;667;48.796;9.480;2024-01-15T08:19:06;3.30;65.30
1347;DHT22;667;48.796;9.480;2024-01-15T08:21:31;3.30;65.10
1347;DHT22;667;48.796;9.480;2024-01-15T08:23:58;3.30;64.70
1347;DHT22;667;48.796;9.480;2024-01-15T08:26:24;3.30;64.60
1347;DHT22;667;48.796;9.480;2024-01-15T08:28:50;3.30;64.40
1347;DHT22;667;48.796;9.480;2024-01-15T08:31:16;3.30;64.20
1347;DHT22;667;48.796;9.480;2024-01-15T08:33:42;3.30;64.00
1347;DHT22;667;48.796;9.480;2024-01-15T08:36:08;3.40;63.50
1347;DHT22;667;48.796;9.480;2024-01-15T08:38:34;3.40;63.40
1347;DHT22;667;48.796;9.480;2024-01-15T08:41:00;3.40;63.00
1347;DHT22;667;48.796;9.480;2024-01-15T08:43:26;3.40;62.80
1347;DHT22;667;48.796;9.480;2024-01-15T08:45:52;3.40;62.60
1347;DHT22;667;48.796;9.480;2024-01-15T08:48:18;3.50;62.20
1347;DHT22;667;48.796;9.480;2024-01-15T08:50:43;3.50;61.90
1347;DHT22;667;48.796;9.480;2024-01-15T08:53:11;3.50;61.90
1347;DHT22;667;48.796;9.480;2024-01-15T08:55:37;3.50;61.90
1347;DHT22;667;48.796;9.480;2024-01-15T08:58:02;3.50;61.90
1347;DHT22;667;48.796;9.480;2024-01-15T09:00:29;3.60;61.90
1347;DHT22;667;48.796;9.480;2024-01-15T09:02:55;3.60;61.70
1347;DHT22;667;48.796;9.480;2024-01-15T09:05:22;3.60;61.60
1347;DHT22;667;48.796;9.480;2024-01-15T09:07:47;3.60;61.50
1347;DHT22;667;48.796;9.480;2024-01-15T09:10:13;3.60;61.40
1347;DHT22;667;48.796;9.480;2024-01-15T09:12:39;3.70;61.30
1347;DHT22;667;48.796;9.480;2024-01-15T09:15:05;3.70;61.20
1347;DHT22;667;48.796;9.480;2024-01-15T09:17:31;3.70;61.10
1347;DHT22;667;48.796;9.480;2024-01-15T09:19:57;3.80;61.10
1347;DHT22;667;48.796;9.480;2024-01-15T09:22:23;3.80;60.90
1347;DHT22;667;48.796;9.480;2024-01-15T09:24:48;3.80;60.70
1347;DHT22;667;48.796;9.480;2024-01-15T09:27:14;3.80;60.70
1347;DHT22;667;48.796;9.480;2024-01-15T09:29:40;3.80;60.50
1347;DHT22;667;48.796;9.480;2024-01-15T09:32:07;3.90;60.50
1347;DHT22;667;48.796;9.480;2024-01-15T09:34:36;3.90;60.30
1347;DHT22;667;48.796;9.480;2024-01-15T09:37:02;3.90;60.10
1347;DHT22;667;48.796;9.480;2024-01-15T09:39:29;4.00;60.00
1347;DHT22;667;48.796;9.480;2024-01-15T09:41:56;4.00;59.80
1347;DHT22;667;48.796;9.480;2024-01-15T09:44:23;4.00;59.70
1347;DHT22;667;48.796;9.480;2024-01-15T09:46:48;4.10;59.70
1347;DHT22;667;48.796;9.480;2024-01-15T09:49:17;4.10;59.60
1347;DHT22;667;48.796;9.480;2024-01-15T09:51:43;4.10;59.50
1347;DHT22;667;48.796;9.480;2024-01-15T09:54:09;4.10;59.40
1347;DHT22;667;48.796;9.480;2024-01-15T09:56:35;4.10;59.30
1347;DHT22;667;48.796;9.480;2024-01-15T09:59:01;4.10;59.30
1347;DHT22;667;48.796;9.480;2024-01-15T10:01:28;4.10;59.20
1347;DHT22;667;48.796;9.480;2024-01-15T10:03:54;4.20;59.20
1347;DHT22;667;48.796;9.480;2024-01-15T10:06:21;4.20;59.20
1347;DHT22;667;48.796;9.480;2024-01-15T10:08:51;4.20;59.10
1347;DHT22;667;48.796;9.480;2024-01-15T10:11:17;4.20;59.10
1347;DHT22;667;48.796;9.480;2024-01-15T10:13:43;4.20;59.00
1347;DHT22;667;48.796;9.480;2024-01-15T10:16:09;4.30;59.10
1347;DHT22;667;48.796;9.480;2024-01-15T10:18:36;4.30;59.10
1347;DHT22;667;48.796;9.480;2024-01-15T10:21:03;4.30;59.00
1347;DHT22;667;48.796;9.480;2024-01-15T10:23:31;4.30;59.00
1347;DHT22;667;48.796;9.480;2024-01-15T10:25:57;4.30;58.90
1347;DHT22;667;48.796;9.480;2024-01-15T10:28:26;4.40;58.90
1347;DHT22;667;48.796;9.480;2024-01-15T10:30:54;4.40;58.90
1347;DHT22;667;48.796;9.480;2024-01-15T10:33:22;4.40;58.90
1347;DHT22;667;48.796;9.480;2024-01-15T10:35:53;4.40;58.80
1347;DHT22;667;48.796;9.480;2024-01-15T10:38:20;4.40;58.70
1347;DHT22;667;48.796;9.480;2024-01-15T10:40:48;4.40;58.60
1347;DHT22;667;48.796;9.480;2024-01-15T10:43:16;4.50;58.60
1347;DHT22;667;48.796;9.480;2024-01-15T10:45:44;4.50;58.60
1347;DHT22;667;48.796;9.480;2024-01-15T10:48:10;4.50;58.60
1347;DHT22;667;48.796;9.480;2024-01-15T10:50:36;4.40;58.50
1347;DHT22;667;48.796;9.480;2024-01-15T10:53:02;4.50;58.60
1347;DHT22;667;48.796;9.480;2024-01-15T10:55:29;4.40;58.50
1347;DHT22;667;48.796;9.480;2024-01-15T10:57:57;4.50;58.50
1347;DHT22;667;48.796;9.480;2024-01-15T11:00:23;4.50;58.10
1347;DHT22;667;48.796;9.480;2024-01-15T11:02:50;4.50;58.10
1347;DHT22;667;48.796;9.480;2024-01-15T11:05:16;4.50;58.10
1347;DHT22;667;48.796;9.480;2024-01-15T11:07:43;4.50;58.10
1347;DHT22;667;48.796;9.480;2024-01-15T11:10:42;4.50;58.10
1347;DHT22;667;48.796;9.480;2024-01-15T11:13:09;4.50;58.10
1347;DHT22;667;48.796;9.480;2024-01-15T11:15:59;4.50;58.20
1347;DHT22;667;48.796;9.480;2024-01-15T11:18:35;4.60;58.30
1347;DHT22;667;48.796;9.480;2024-01-15T11:23:56;4.60;58.30
1347;DHT22;667;48.796;9.480;2024-01-15T11:29:10;4.60;58.30
1347;DHT22;667;48.796;9.480;2024-01-15T11:31:58;4.60;58.40
1347;DHT22;667;48.796;9.480;2024-01-15T11:34:52;4.60;58.50
1347;DHT22;667;48.796;9.480;2024-01-15T11:37:19;4.60;58.60
1347;DHT22;667;48.796;9.480;2024-01-15T11:39:45;4.60;58.70
1347;DHT22;667;48.796;9.480;2024-01-15T11:42:13;4.60;58.90
1347;DHT22;667;48.796;9.480;2024-01-15T11:44:40;4.60;59.00
1347;DHT22;667;48.796;9.480;2024-01-15T11:47:09;4.60;59.20
1347;DHT22;667;48.796;9.480;2024-01-15T11:52:20;4.50;59.90
1347;DHT22;667;48.796;9.480;2024-01-15T11:54:55;4.50;60.40
1347;DHT22;667;48.796;9.480;2024-01-15T11:57:37;4.50;60.90
1347;DHT22;667;48.796;9.480;2024-01-15T12:00:07;4.50;60.90
1347;DHT22;667;48.796;9.480;2024-01-15T12:02:34;4.50;61.30
1347;DHT22;667;48.796;9.480;2024-01-15T12:04:59;4.50;61.70
1347;DHT22;667;48.796;9.480;2024-01-15T12:07:25;4.50;61.80
1347;DHT22;667;48.796;9.480;2024-01-15T12:09:50;4.50;62.00
1347;DHT22;667;48.796;9.480;2024-01-15T12:12:35;4.40;62.00
1347;DHT22;667;48.796;9.480;2024-01-15T12:15:03;4.40;62.00
1347;DHT22;667;48.796;9.480;2024-01-15T12:17:29;4.40;62.00
1347;DHT22;667;48.796;9.480;2024-01-15T12:19:55;4.50;62.10
1347;DHT22;667;48.796;9.480;2024-01-15T12:22:21;4.50;62.20
1347;DHT22;667;48.796;9.480;2024-01-15T12:24:47;4.50;62.30
1347;DHT22;667;48.796;9.480;2024-01-15T12:27:13;4.50;62.50
1347;DHT22;667;48.796;9.480;2024-01-15T12:29:38;4.40;63.00
1347;DHT22;667;48.796;9.480;2024-01-15T12:32:05;4.40;63.50
1347;DHT22;667;48.796;9.480;2024-01-15T12:34:31;4.40;63.90
1347;DHT22;667;48.796;9.480;2024-01-15T12:36:58;4.40;64.10
1347;DHT22;667;48.796;9.480;2024-01-15T12:39:24;4.40;64.20
1347;DHT22;667;48.796;9.480;2024-01-15T12:41:50;4.50;64.50
1347;DHT22;667;48.796;9.480;2024-01-15T12:44:16;4.50;64.80
1347;DHT22;667;48.796;9.480;2024-01-15T12:46:42;4.40;64.80
1347;DHT22;667;48.796;9.480;2024-01-15T12:49:08;4.40;65.10
1347;DHT22;667;48.796;9.480;2024-01-15T12:51:36;4.40;65.60
1347;DHT22;667;48.796;9.480;2024-01-15T12:54:02;4.40;66.00
1347;DHT22;667;48.796;9.480;2024-01-15T12:56:27;4.30;66.30
1347;DHT22;667;48.796;9.480;2024-01-15T12:58:53;4.30;67.00
1347;DHT22;667;48.796;9.480;2024-01-15T13:01:18;4.30;67.40
1347;DHT22;667;48.796;9.480;2024-01-15T13:03:44;4.30;67.90
1347;DHT22;667;48.796;9.480;2024-01-15T13:06:09;4.20;68.40
1347;DHT22;667;48.796;9.480;2024-01-15T13:08:35;4.20;68.90
1347;DHT22;667;48.796;9.480;2024-01-15T13:11:01;4.10;69.30
1347;DHT22;667;48.796;9.480;2024-01-15T13:13:26;4.10;70.00
1347;DHT22;667;48.796;9.480;2024-01-15T13:15:52;4.10;70.50
1347;DHT22;667;48.796;9.480;2024-01-15T13:18:18;4.00;70.90
1347;DHT22;667;48.796;9.480;2024-01-15T13:20:44;4.00;71.30
1347;DHT22;667;48.796;9.480;2024-01-15T13:23:11;4.00;71.60
1347;DHT22;667;48.796;9.480;2024-01-15T13:25:36;4.00;71.80
1347;DHT22;667;48.796;9.480;2024-01-15T13:28:04;4.00;72.80
1347;DHT22;667;48.796;9.480;2024-01-15T13:30:30;4.00;72.50
1347;DHT22;667;48.796;9.480;2024-01-15T13:32:56;4.00;72.70
1347;DHT22;667;48.796;9.480;2024-01-15T13:35:23;4.00;73.50
1347;DHT22;667;48.796;9.480;2024-01-15T13:37:48;4.00;73.10
1347;DHT22;667;48.796;9.480;2024-01-15T13:40:14;4.00;73.10
1347;DHT22;667;48.796;9.480;2024-01-15T13:42:45;4.00;73.40
1347;DHT22;667;48.796;9.480;2024-01-15T13:45:11;3.90;73.40
1347;DHT22;667;48.796;9.480;2024-01-15T13:47:40;3.90;73.50
1347;DHT22;667;48.796;9.480;2024-01-15T13:50:06;4.00;73.70
1347;DHT22;667;48.796;9.480;2024-01-15T13:52:32;4.00;74.40
1347;DHT22;667;48.796;9.480;2024-01-15T13:54:58;4.00;73.80
1347;DHT22;667;48.796;9.480;2024-01-15T13:57:23;4.00;73.90
1347;DHT22;667;48.796;9.480;2024-01-15T13:59:49;4.00;74.00
1347;DHT22;667;48.796;9.480;2024-01-15T14:02:15;4.00;74.10
1347;DHT22;667;48.796;9.480;2024-01-15T14:04:40;4.00;74.10
1347;DHT22;667;48.796;9.480;2024-01-15T14:07:06;4.00;74.30
1347;DHT22;667;48.796;9.480;2024-01-15T14:09:33;4.00;74.30
1347;DHT22;667;48.796;9.480;2024-01-15T14:11:59;4.00;74.50
1347;DHT22;667;48.796;9.480;2024-01-15T14:14:25;4.00;74.60
1347;DHT22;667;48.796;9.480;2024-01-15T14:16:50;4.00;74.80
1347;DHT22;667;48.796;9.480;2024-01-15T14:19:16;4.00;75.00
1347;DHT22;667;48.796;9.480;2024-01-15T14:21:41;4.00;75.10
1347;DHT22;667;48.796;9.480;2024-01-15T14:24:07;4.00;75.20
1347;DHT22;667;48.796;9.480;2024-01-15T14:26:33;4.00;75.20
1347;DHT22;667;48.796;9.480;2024-01-15T14:28:58;4.10;75.40
1347;DHT22;667;48.796;9.480;2024-01-15T14:31:24;4.00;75.40
1347;DHT22;667;48.796;9.480;2024-01-15T14:33:52;4.00;75.40
1347;DHT22;667;48.796;9.480;2024-01-15T14:36:17;4.00;75.60
1347;DHT22;667;48.796;9.480;2024-01-15T14:38:43;4.00;75.70
1347;DHT22;667;48.796;9.480;2024-01-15T14:41:09;4.00;75.70
1347;DHT22;667;48.796;9.480;2024-01-15T14:43:34;4.10;75.80
1347;DHT22;667;48.796;9.480;2024-01-15T14:46:00;4.10;75.90
1347;DHT22;667;48.796;9.480;2024-01-15T14:48:25;4.10;75.90
1347;DHT22;667;48.796;9.480;2024-01-15T14:50:51;4.00;76.00
1347;DHT22;667;48.796;9.480;2024-01-15T14:53:16;4.00;76.20
1347;DHT22;667;48.796;9.480;2024-01-15T14:55:42;4.00;76.30
1347;DHT22;667;48.796;9.480;2024-01-15T14:58:08;4.00;76.40
1347;DHT22;667;48.796;9.480;2024-01-15T15:00:34;4.00;76.50
1347;DHT22;667;48.796;9.480;2024-01-15T15:03:00;4.00;76.60
1347;DHT22;667;48.796;9.480;2024-01-15T15:05:25;4.00;76.80
1347;DHT22;667;48.796;9.480;2024-01-15T15:07:51;4.00;76.90
1347;DHT22;667;48.796;9.480;2024-01-15T15:10:17;3.90;76.90
1347;DHT22;667;48.796;9.480;2024-01-15T15:12:42;3.90;76.90
1347;DHT22;667;48.796;9.480;2024-01-15T15:15:09;3.90;76.80
1347;DHT22;667;48.796;9.480;2024-01-15T15:17:37;3.90;76.90
1347;DHT22;667;48.796;9.480;2024-01-15T15:20:04;3.90;77.00
1347;DHT22;667;48.796;9.480;2024-01-15T15:22:30;3.90;76.90
1347;DHT22;667;48.796;9.480;2024-01-15T15:24:56;3.80;76.70
1347;DHT22;667;48.796;9.480;2024-01-15T15:27:21;3.80;76.70
1347;DHT22;667;48.796;9.480;2024-01-15T15:29:47;3.80;76.60
1347;DHT22;667;48.796;9.480;2024-01-15T15:32:13;3.80;76.60
1347;DHT22;667;48.796;9.480;2024-01-15T15:34:39;3.80;76.50
1347;DHT22;667;48.796;9.480;2024-01-15T15:37:05;3.80;76.40
1347;DHT22;667;48.796;9.480;2024-01-15T15:39:30;3.80;76.40
1347;DHT22;667;48.796;9.480;2024-01-15T15:41:56;3.70;76.20
1347;DHT22;667;48.796;9.480;2024-01-15T15:44:22;3.70;76.20
1347;DHT22;667;48.796;9.480;2024-01-15T15:46:47;3.70;76.20
1347;DHT22;667;48.796;9.480;2024-01-15T15:49:13;3.60;76.00
1347;DHT22;667;48.796;9.480;2024-01-15T15:51:40;3.60;75.90
1347;DHT22;667;48.796;9.480;2024-01-15T15:54:05;3.60;75.70
1347;DHT22;667;48.796;9.480;2024-01-15T15:56:34;3.60;75.40
1347;DHT22;667;48.796;9.480;2024-01-15T15:59:04;3.60;75.30
1347;DHT22;667;48.796;9.480;2024-01-15T16:01:30;3.60;75.10
1347;DHT22;667;48.796;9.480;2024-01-15T16:03:56;3.60;75.10
1347;DHT22;667;48.796;9.480;2024-01-15T16:06:21;3.60;75.00
1347;DHT22;667;48.796;9.480;2024-01-15T16:08:47;3.60;74.70
1347;DHT22;667;48.796;9.480;2024-01-15T16:11:12;3.60;74.40
1347;DHT22;667;48.796;9.480;2024-01-15T16:13:38;3.60;74.00
1347;DHT22;667;48.796;9.480;2024-01-15T16:16:04;3.60;73.80
1347;DHT22;667;48.796;9.480;2024-01-15T16:18:29;3.60;73.50
1347;DHT22;667;48.796;9.480;2024-01-15T16:20:55;3.60;73.20
1347;DHT22;667;48.796;9.480;2024-01-15T16:23:21;3.60;72.90
1347;DHT22;667;48.796;9.480;2024-01-15T16:25:47;3.60;72.50
1347;DHT22;667;48.796;9.480;2024-01-15T16:28:12;3.60;72.30
1347;DHT22;667;48.796;9.480;2024-01-15T16:30:38;3.60;72.20
1347;DHT22;667;48.796;9.480;2024-01-15T16:33:04;3.60;72.10
1347;DHT22;667;48.796;9.480;2024-01-15T16:35:29;3.60;72.10